Time;durP1;ratioP1;P1;durP2;ratioP2;P2;SDS_P1;SDS_P2;PMS_P1;PMS_P2;Temp;Humidity;BMP_temperature;BMP_pressure;BME280_temperature;BME280_humidity;BME280_pressure;Samples;Min_cycle;Max_cycle;Signal;HPM_P1;HPM_P2
2021/05/09 00:01:10;;;;;;;0.30;0.20;;;;;;;8.20;97.24;99710.81;5017392;28;20472;-56
2021/05/09 00:03:37;;;;;;;0.40;0.40;;;;;;;8.09;97.53;99707.63;5023826;28;20821;-55
2021/05/09 00:06:04;;;;;;;3.50;1.53;;;;;;;7.99;99.18;99705.22;5015252;28;20535;-56
2021/05/09 00:08:30;;;;;;;0.30;0.20;;;;;;;7.99;98.77;99705.22;5015506;28;20506;-56
2021/05/09 00:10:56;;;;;;;0.30;0.20;;;;;;;7.92;99.33;99700.13;5015262;28;20526;-55
2021/05/09 00:13:22;;;;;;;0.40;0.30;;;;;;;8.21;97.57;99709.88;5015208;28;20456;-55
2021/05/09 00:15:50;;;;;;;0.30;0.20;;;;;;;8.10;98.02;99698.75;5014917;28;20460;-55
2021/05/09 00:18:16;;;;;;;0.30;0.20;;;;;;;8.00;98.83;99699.00;5015133;28;20444;-56
2021/05/09 00:20:43;;;;;;;0.30;0.20;;;;;;;7.95;98.96;99698.28;5014950;28;20475;-53
2021/05/09 00:23:10;;;;;;;0.30;0.20;;;;;;;7.89;99.17;99687.84;5014966;28;21016;-53
2021/05/09 00:25:37;;;;;;;1.27;1.27;;;;;;;7.80;98.09;99693.38;4997333;28;21040;-53
2021/05/09 00:28:03;;;;;;;0.30;0.20;;;;;;;7.87;98.93;99683.50;5014977;28;20507;-53
2021/05/09 00:30:30;;;;;;;0.30;0.20;;;;;;;7.65;99.73;99683.19;5014761;28;20473;-53
2021/05/09 00:32:56;;;;;;;0.30;0.20;;;;;;;7.90;99.65;99681.63;5014850;28;21000;-53
2021/05/09 00:35:22;;;;;;;0.30;0.20;;;;;;;8.13;98.34;99686.31;5014736;28;20453;-53
2021/05/09 00:37:48;;;;;;;0.30;0.20;;;;;;;8.09;98.28;99668.78;5015193;28;20489;-53
2021/05/09 00:40:14;;;;;;;0.30;0.20;;;;;;;7.94;98.36;99675.34;5014707;28;20460;-54
2021/05/09 00:42:41;;;;;;;0.40;0.30;;;;;;;7.78;98.50;99679.31;4997791;28;20536;-53
2021/05/09 00:45:08;;;;;;;0.30;0.20;;;;;;;7.63;99.05;99669.16;5014950;28;20452;-53
2021/05/09 00:47:34;;;;;;;0.30;0.20;;;;;;;7.80;98.73;99666.91;5014465;28;20445;-53
2021/05/09 00:50:01;;;;;;;0.30;0.20;;;;;;;7.60;99.78;99670.13;4997107;28;20452;-53
2021/05/09 00:52:31;;;;;;;1.93;1.77;;;;;;;7.63;100.00;99670.03;5014484;28;20472;-53
2021/05/09 00:55:05;;;;;;;0.30;0.20;;;;;;;7.59;100.00;99662.22;5014145;28;20491;-53
2021/05/09 00:57:34;;;;;;;0.30;0.20;;;;;;;7.33;100.00;99658.47;5000272;28;20543;-53
2021/05/09 01:00:04;;;;;;;0.30;0.30;;;;;;;7.48;100.00;99664.28;5014202;28;20530;-54
2021/05/09 01:02:30;;;;;;;0.30;0.20;;;;;;;7.26;100.00;99659.53;5025365;28;20468;-53
2021/05/09 01:04:59;;;;;;;0.30;0.20;;;;;;;7.29;100.00;99658.59;5014067;28;20457;-54
2021/05/09 01:07:25;;;;;;;0.30;0.20;;;;;;;7.36;100.00;99654.88;5013977;28;20858;-53
2021/05/09 01:09:52;;;;;;;0.30;0.20;;;;;;;7.48;100.00;99654.56;5014312;28;21018;-54
2021/05/09 01:12:18;;;;;;;0.30;0.30;;;;;;;7.27;100.00;99658.66;4996536;28;20479;-54
2021/05/09 01:14:44;;;;;;;0.30;0.20;;;;;;;7.39;100.00;99649.50;4996450;28;20448;-54
2021/05/09 01:17:12;;;;;;;1.13;0.47;;;;;;;7.21;100.00;99653.50;5013993;28;20546;-54
2021/05/09 01:19:40;;;;;;;0.30;0.20;;;;;;;7.29;100.00;99653.31;5014014;28;20464;-54
2021/05/09 01:22:09;;;;;;;0.30;0.20;;;;;;;7.23;100.00;99656.97;5013743;28;20480;-54
2021/05/09 01:24:35;;;;;;;0.30;0.20;;;;;;;7.15;100.00;99650.16;5013775;28;20456;-54
2021/05/09 01:27:03;;;;;;;0.40;0.30;;;;;;;7.09;100.00;99656.44;5013642;28;20448;-54
2021/05/09 01:29:31;;;;;;;0.30;0.20;;;;;;;7.13;100.00;99655.50;5013644;28;20861;-54
2021/05/09 01:31:57;;;;;;;0.30;0.20;;;;;;;7.10;100.00;99648.47;5013632;28;20476;-54
2021/05/09 01:34:24;;;;;;;0.30;0.20;;;;;;;7.09;100.00;99640.59;5013791;28;20827;-54
2021/05/09 01:36:50;;;;;;;0.30;0.20;;;;;;;7.28;100.00;99641.00;5013419;28;20573;-54
2021/05/09 01:39:16;;;;;;;0.30;0.20;;;;;;;7.52;100.00;99642.13;4996148;28;20452;-54
2021/05/09 01:41:43;;;;;;;1.80;0.87;;;;;;;7.38;100.00;99643.34;4995678;28;20538;-54
2021/05/09 01:44:09;;;;;;;0.30;0.27;;;;;;;7.43;100.00;99630.91;5013268;28;20510;-54
2021/05/09 01:46:35;;;;;;;0.30;0.20;;;;;;;7.45;100.00;99644.06;5013415;28;20488;-54
2021/05/09 01:49:01;;;;;;;0.40;0.30;;;;;;;7.53;100.00;99646.50;5013556;28;20448;-54
2021/05/09 01:51:27;;;;;;;0.30;0.20;;;;;;;7.54;100.00;99640.31;5013249;28;20477;-54
2021/05/09 01:53:54;;;;;;;0.30;0.20;;;;;;;7.41;100.00;99645.94;5013182;28;20456;-54
2021/05/09 01:56:20;;;;;;;0.30;0.20;;;;;;;7.49;100.00;99637.78;5008418;28;20445;-54
2021/05/09 01:58:46;;;;;;;0.30;0.20;;;;;;;7.46;100.00;99637.88;5005137;28;20933;-54
2021/05/09 02:01:12;;;;;;;0.30;0.20;;;;;;;7.55;100.00;99640.28;5015766;28;20472;-55
2021/05/09 02:03:38;;;;;;;0.30;0.20;;;;;;;7.63;100.00;99645.34;5021559;28;20452;-54
2021/05/09 02:06:05;;;;;;;0.30;0.20;;;;;;;7.58;100.00;99641.97;5012975;28;20448;-54
2021/05/09 02:08:31;;;;;;;0.30;0.20;;;;;;;7.81;100.00;99636.03;5012504;28;20449;-54
2021/05/09 02:10:57;;;;;;;0.30;0.30;;;;;;;7.70;100.00;99641.66;5012626;28;20473;-54
2021/05/09 02:13:23;;;;;;;0.30;0.20;;;;;;;7.83;100.00;99643.06;5013057;28;20453;-54
2021/05/09 02:15:49;;;;;;;0.30;0.20;;;;;;;7.86;100.00;99642.97;5012676;28;20448;-54
2021/05/09 02:18:16;;;;;;;0.30;0.20;;;;;;;7.83;100.00;99632.47;5012926;28;20492;-54
2021/05/09 02:20:42;;;;;;;0.30;0.20;;;;;;;7.83;100.00;99634.25;5012738;28;20472;-54
2021/05/09 02:23:11;;;;;;;0.30;0.20;;;;;;;7.78;100.00;99633.47;5012888;28;20954;-51
2021/05/09 02:25:37;;;;;;;0.67;0.67;;;;;;;7.62;100.00;99633.91;5013055;28;20453;-52
2021/05/09 02:28:04;;;;;;;1.33;1.23;;;;;;;7.70;100.00;99623.13;5012651;28;20445;-51
2021/05/09 02:30:30;;;;;;;0.30;0.20;;;;;;;7.73;100.00;99623.91;5012759;28;20475;-52
2021/05/09 02:32:56;;;;;;;0.30;0.20;;;;;;;7.62;100.00;99625.09;5011989;28;20457;-51
2021/05/09 02:35:22;;;;;;;0.30;0.20;;;;;;;7.76;100.00;99627.38;5012565;28;20507;-52
2021/05/09 02:37:50;;;;;;;0.30;0.20;;;;;;;8.09;100.00;99615.84;4995053;28;20842;-52
2021/05/09 02:40:17;;;;;;;0.30;0.20;;;;;;;7.91;100.00;99617.22;5012186;28;20453;-52
2021/05/09 02:42:47;;;;;;;0.30;0.20;;;;;;;7.82;100.00;99614.00;5026132;23;21039;-51
2021/05/09 02:45:14;;;;;;;0.30;0.20;;;;;;;7.83;100.00;99618.38;5012698;28;20448;-50
2021/05/09 02:47:40;;;;;;;0.30;0.20;;;;;;;7.81;100.00;99618.41;5012458;28;20949;-51
2021/05/09 02:50:09;;;;;;;0.30;0.20;;;;;;;7.68;100.00;99615.25;5012573;28;20452;-50
2021/05/09 02:52:36;;;;;;;0.30;0.20;;;;;;;7.79;100.00;99617.56;5012187;28;20852;-50
2021/05/09 02:55:03;;;;;;;0.30;0.20;;;;;;;7.87;100.00;99612.06;5012150;28;20934;-50
2021/05/09 02:57:29;;;;;;;0.30;0.20;;;;;;;7.83;100.00;99611.31;4999219;28;20551;-50
2021/05/09 02:59:56;;;;;;;10.13;2.00;;;;;;;7.83;100.00;99610.44;5012450;28;20448;-50
2021/05/09 03:02:22;;;;;;;0.30;0.20;;;;;;;7.76;100.00;99612.38;5022797;28;20471;-49
2021/05/09 03:04:49;;;;;;;0.30;0.20;;;;;;;7.92;100.00;99603.06;5012407;28;20934;-50
2021/05/09 03:07:15;;;;;;;0.50;0.40;;;;;;;7.77;100.00;99610.59;5012129;28;20448;-50
2021/05/09 03:09:42;;;;;;;0.30;0.20;;;;;;;7.79;100.00;99611.41;5012219;28;20448;-50
2021/05/09 03:12:08;;;;;;;0.30;0.20;;;;;;;7.78;100.00;99613.19;5012337;28;20468;-51
2021/05/09 03:14:34;;;;;;;0.30;0.20;;;;;;;7.89;100.00;99605.81;5012331;28;20455;-50
2021/05/09 03:17:01;;;;;;;0.30;0.20;;;;;;;7.86;100.00;99603.28;4994494;28;20489;-50
2021/05/09 03:19:27;;;;;;;0.30;0.20;;;;;;;7.93;100.00;99604.81;5012132;28;20452;-50
2021/05/09 03:21:53;;;;;;;0.30;0.20;;;;;;;7.81;100.00;99606.94;5015205;28;20480;-50
2021/05/09 03:24:19;;;;;;;0.30;0.20;;;;;;;7.88;100.00;99601.44;5007699;28;20511;-49
2021/05/09 03:26:46;;;;;;;0.30;0.20;;;;;;;7.84;100.00;99602.44;5011464;28;20484;-50
2021/05/09 03:29:12;;;;;;;0.30;0.20;;;;;;;7.66;100.00;99608.25;5016035;28;20821;-50
2021/05/09 03:31:39;;;;;;;0.30;0.20;;;;;;;7.78;100.00;99602.59;5015646;28;20527;-50
2021/05/09 03:34:05;;;;;;;0.83;0.83;;;;;;;7.89;100.00;99604.94;5016069;28;20459;-49
2021/05/09 03:36:32;;;;;;;0.30;0.20;;;;;;;7.95;100.00;99604.78;5015574;28;20492;-50
2021/05/09 03:38:58;;;;;;;0.30;0.20;;;;;;;8.10;100.00;99608.78;5015880;28;20457;-49
2021/05/09 03:41:24;;;;;;;0.30;0.20;;;;;;;8.08;100.00;99614.06;5015322;28;20977;-50
2021/05/09 03:43:50;;;;;;;0.30;0.20;;;;;;;8.32;100.00;99617.78;5015764;28;20826;-50
2021/05/09 03:46:18;;;;;;;0.50;0.50;;;;;;;8.30;100.00;99615.19;5015473;28;20456;-50
2021/05/09 03:48:44;;;;;;;1.13;1.03;;;;;;;8.09;100.00;99610.56;5015576;28;20452;-51
2021/05/09 03:51:11;;;;;;;0.30;0.20;;;;;;;8.29;100.00;99607.28;5015174;28;20599;-50
2021/05/09 03:53:37;;;;;;;0.30;0.20;;;;;;;8.12;100.00;99604.28;5015397;28;20819;-50
2021/05/09 03:56:03;;;;;;;0.30;0.20;;;;;;;8.17;100.00;99608.53;5012721;28;20522;-49
2021/05/09 03:58:29;;;;;;;0.30;0.20;;;;;;;8.24;100.00;99607.44;5005083;28;20527;-50
2021/05/09 04:00:55;;;;;;;0.30;0.20;;;;;;;8.16;100.00;99608.56;5015769;28;20969;-50
2021/05/09 04:03:30;;;;;;;0.30;0.20;;;;;;;8.21;100.00;99609.28;5008399;28;20460;-50
2021/05/09 04:05:57;;;;;;;0.30;0.20;;;;;;;8.11;100.00;99613.16;5015026;28;20952;-50
2021/05/09 04:08:26;;;;;;;0.30;0.20;;;;;;;7.99;100.00;99606.44;5015206;28;20449;-51
2021/05/09 04:10:56;;;;;;;0.30;0.20;;;;;;;8.16;100.00;99616.50;5015059;28;20448;-50
2021/05/09 04:13:23;;;;;;;0.30;0.20;;;;;;;8.09;100.00;99599.97;5015012;28;20996;-50
2021/05/09 04:15:49;;;;;;;0.30;0.20;;;;;;;8.17;100.00;99595.28;5014820;28;20453;-50
2021/05/09 04:18:16;;;;;;;0.30;0.10;;;;;;;8.01;100.00;99586.94;5014816;28;20546;-50
2021/05/09 04:20:43;;;;;;;0.30;0.20;;;;;;;7.99;100.00;99587.91;5014919;28;20510;-51
2021/05/09 04:23:18;;;;;;;0.30;0.20;;;;;;;8.01;100.00;99599.31;5015242;28;20452;-50
2021/05/09 04:25:49;;;;;;;0.30;0.20;;;;;;;8.19;100.00;99590.81;5014667;28;20467;-50
2021/05/09 04:28:17;;;;;;;0.30;0.20;;;;;;;8.20;100.00;99595.19;5014835;28;20792;-50
2021/05/09 04:30:43;;;;;;;0.30;0.20;;;;;;;8.06;100.00;99596.50;5001705;28;20938;-49
2021/05/09 04:33:09;;;;;;;0.30;0.20;;;;;;;8.32;100.00;99583.38;5013614;28;20944;-49
2021/05/09 04:35:37;;;;;;;0.30;0.20;;;;;;;8.19;100.00;99597.88;5014540;28;20515;-50
2021/05/09 04:38:03;;;;;;;0.30;0.20;;;;;;;8.17;100.00;99594.41;5014554;28;20492;-50
2021/05/09 04:40:30;;;;;;;0.53;0.53;;;;;;;8.38;100.00;99593.81;5014565;28;20456;-50
2021/05/09 04:43:06;;;;;;;0.30;0.20;;;;;;;8.63;100.00;99593.03;5014161;28;20480;-50
2021/05/09 04:45:34;;;;;;;0.57;0.57;;;;;;;9.00;100.00;99590.91;5014812;28;20471;-50
2021/05/09 04:48:01;;;;;;;0.30;0.20;;;;;;;9.98;100.00;99596.25;5014371;28;20448;-50
2021/05/09 04:50:27;;;;;;;0.30;0.20;;;;;;;10.41;96.95;99601.75;5014653;28;20456;-50
2021/05/09 04:52:57;;;;;;;0.30;0.20;;;;;;;11.36;92.86;99606.72;5014161;28;20473;-50
2021/05/09 04:55:23;;;;;;;0.30;0.20;;;;;;;11.94;90.97;99598.88;5014274;28;20444;-50
2021/05/09 04:57:50;;;;;;;0.30;0.20;;;;;;;12.28;87.64;99599.06;5000772;28;20574;-50
2021/05/09 05:00:17;;;;;;;0.70;0.70;;;;;;;12.75;86.28;99588.81;5014210;28;20448;-50
2021/05/09 05:02:45;;;;;;;0.30;0.20;;;;;;;12.81;83.98;99600.97;5024926;28;20473;-50
2021/05/09 05:05:12;;;;;;;0.30;0.20;;;;;;;12.65;84.65;99597.31;5014145;28;20866;-50
2021/05/09 05:07:38;;;;;;;0.40;0.40;;;;;;;12.20;85.49;99603.00;5013876;28;20960;-50
2021/05/09 05:10:06;;;;;;;0.30;0.20;;;;;;;11.77;88.36;99599.59;5013947;28;20507;-49
2021/05/09 05:12:32;;;;;;;0.30;0.20;;;;;;;11.73;89.22;99600.66;5013587;28;20898;-50
2021/05/09 05:14:58;;;;;;;0.30;0.20;;;;;;;11.66;90.13;99607.22;5014106;28;20460;-50
2021/05/09 05:17:24;;;;;;;0.40;0.30;;;;;;;11.80;91.29;99599.50;5013875;28;20870;-51
2021/05/09 05:19:50;;;;;;;0.30;0.20;;;;;;;12.05;88.64;99599.25;5013792;28;20751;-50
2021/05/09 05:22:17;;;;;;;0.40;0.30;;;;;;;12.39;87.77;99615.41;5013569;28;20523;-51
2021/05/09 05:24:43;;;;;;;0.30;0.20;;;;;;;12.32;88.67;99616.63;5013535;28;20452;-51
2021/05/09 05:27:09;;;;;;;0.30;0.20;;;;;;;12.57;87.23;99612.81;5013471;28;20449;-51
2021/05/09 05:29:35;;;;;;;0.40;0.30;;;;;;;13.02;86.00;99610.59;5013753;28;20452;-50
2021/05/09 05:32:01;;;;;;;0.30;0.20;;;;;;;13.00;84.98;99612.44;5013708;28;20481;-51
2021/05/09 05:34:27;;;;;;;5.07;1.60;;;;;;;13.12;84.45;99610.97;5013773;28;20480;-50
2021/05/09 05:36:54;;;;;;;0.30;0.20;;;;;;;13.13;84.35;99610.03;5013298;28;20522;-50
2021/05/09 05:39:20;;;;;;;0.30;0.20;;;;;;;14.04;82.52;99604.44;5013516;28;20449;-50
2021/05/09 05:41:46;;;;;;;0.40;0.30;;;;;;;14.19;79.79;99602.75;4995656;28;20484;-51
2021/05/09 05:44:12;;;;;;;0.30;0.20;;;;;;;13.87;80.61;99594.66;4995712;28;20957;-50
2021/05/09 05:46:44;;;;;;;0.30;0.20;;;;;;;13.72;81.60;99614.19;5013468;28;20471;-51
2021/05/09 05:49:10;;;;;;;0.40;0.30;;;;;;;14.08;80.71;99600.66;5013347;28;20452;-50
2021/05/09 05:51:36;;;;;;;0.30;0.20;;;;;;;14.23;80.84;99596.28;5012965;28;21048;-50
2021/05/09 05:54:03;;;;;;;0.73;0.73;;;;;;;13.89;81.10;99600.78;4995806;28;20452;-49
2021/05/09 05:56:29;;;;;;;0.40;0.30;;;;;;;13.83;81.16;99587.75;5006993;28;21008;-50
2021/05/09 05:58:55;;;;;;;0.40;0.30;;;;;;;14.17;80.20;99586.81;5006263;28;20448;-50
2021/05/09 06:01:22;;;;;;;0.30;0.20;;;;;;;14.77;77.79;99595.03;5016736;28;20882;-50
2021/05/09 06:03:48;;;;;;;0.30;0.20;;;;;;;14.76;77.98;99595.13;5020029;28;20897;-50
2021/05/09 06:06:14;;;;;;;0.30;0.20;;;;;;;14.77;77.94;99591.50;5012910;28;21000;-50
2021/05/09 06:08:42;;;;;;;0.40;0.30;;;;;;;15.07;77.25;99592.41;4995297;28;20794;-51
2021/05/09 06:11:08;;;;;;;0.30;0.20;;;;;;;15.53;75.63;99586.16;4995563;28;20515;-50
2021/05/09 06:13:34;;;;;;;0.30;0.20;;;;;;;14.74;76.53;99586.34;5013003;28;20453;-50
2021/05/09 06:16:00;;;;;;;0.30;0.20;;;;;;;15.03;76.33;99584.66;5013036;28;20954;-50
2021/05/09 06:18:26;;;;;;;0.40;0.20;;;;;;;15.22;76.51;99587.16;5012733;28;20613;-50
2021/05/09 06:20:54;;;;;;;3.07;0.50;;;;;;;14.87;76.04;99597.22;5012594;28;20472;-51
2021/05/09 06:23:27;;;;;;;0.40;0.20;;;;;;;15.61;75.30;99598.16;4995113;28;20448;-50
2021/05/09 06:25:53;;;;;;;0.40;0.20;;;;;;;14.80;78.37;99591.31;5012893;28;20995;-50
2021/05/09 06:28:19;;;;;;;0.40;0.30;;;;;;;15.21;77.86;99582.72;5012764;28;20455;-50
2021/05/09 06:30:47;;;;;;;0.30;0.20;;;;;;;14.66;79.20;99592.09;5012840;28;20452;-50
2021/05/09 06:33:13;;;;;;;0.40;0.40;;;;;;;14.40;80.01;99590.91;5012576;28;20448;-51
2021/05/09 06:35:41;;;;;;;0.50;0.50;;;;;;;15.05;78.78;99586.28;5012444;28;20527;-50
2021/05/09 06:38:09;;;;;;;0.40;0.33;;;;;;;15.05;78.86;99586.28;5012391;28;20801;-50
2021/05/09 06:40:36;;;;;;;1.90;1.90;;;;;;;14.57;80.38;99581.94;5012560;28;20448;-51
2021/05/09 06:43:04;;;;;;;0.70;0.67;;;;;;;14.81;80.76;99580.56;5012478;28;20511;-50
2021/05/09 06:45:32;;;;;;;0.40;0.20;;;;;;;14.92;80.42;99577.25;5012504;28;20449;-50
2021/05/09 06:48:02;;;;;;;0.40;0.30;;;;;;;14.87;80.88;99565.09;5012092;28;20452;-50
2021/05/09 06:50:30;;;;;;;0.30;0.20;;;;;;;15.04;80.44;99571.19;5012334;28;20882;-50
2021/05/09 06:52:57;;;;;;;0.80;0.70;;;;;;;14.51;81.45;99569.78;5012141;28;20468;-50
2021/05/09 06:55:24;;;;;;;0.30;0.20;;;;;;;14.85;81.61;99569.69;5013505;28;20451;-51
2021/05/09 06:57:51;;;;;;;0.30;0.20;;;;;;;14.62;82.68;99558.47;5003531;28;20572;-50
2021/05/09 07:00:18;;;;;;;0.30;0.20;;;;;;;14.97;81.69;99555.59;5016314;28;20960;-50
2021/05/09 07:02:45;;;;;;;0.30;0.20;;;;;;;14.94;81.76;99556.63;5026493;28;20559;-50
2021/05/09 07:05:11;;;;;;;1.13;0.83;;;;;;;15.07;81.26;99560.28;5016423;28;20452;-50
2021/05/09 07:07:52;;;;;;;0.57;0.57;;;;;;;15.20;80.80;99544.38;5016233;28;20448;-51
2021/05/09 07:10:21;;;;;;;0.40;0.20;;;;;;;15.41;80.20;99542.22;5016068;28;20452;-51
2021/05/09 07:12:47;;;;;;;0.30;0.20;;;;;;;15.51;79.97;99542.53;5016113;28;20483;-50
2021/05/09 07:15:21;;;;;;;0.50;0.50;;;;;;;15.67;79.21;99551.41;5016065;28;20463;-50
2021/05/09 07:18:06;;;;;;;0.40;0.20;;;;;;;15.86;78.22;99543.06;5016346;28;20499;-50
2021/05/09 07:20:34;;;;;;;0.40;0.20;;;;;;;15.80;78.51;99540.78;5015823;28;20510;-50
2021/05/09 07:23:02;;;;;;;0.40;0.20;;;;;;;16.40;77.19;99551.25;5015780;28;20523;-50
2021/05/09 07:25:28;;;;;;;0.73;0.73;;;;;;;16.26;77.97;99544.97;5015762;28;20514;-50
2021/05/09 07:28:04;;;;;;;0.40;0.20;;;;;;;16.66;76.95;99537.03;5015644;28;20976;-50
2021/05/09 07:30:30;;;;;;;0.40;0.30;;;;;;;17.08;77.57;99538.69;5015758;28;20867;-51
2021/05/09 07:32:56;;;;;;;0.40;0.20;;;;;;;17.61;75.37;99533.31;5015749;28;20480;-50
2021/05/09 07:35:23;;;;;;;0.40;0.20;;;;;;;17.15;75.60;99528.41;5015479;28;20526;-50
2021/05/09 07:37:50;;;;;;;0.40;0.30;;;;;;;17.59;74.64;99521.81;5015370;28;20546;-50
2021/05/09 07:40:16;;;;;;;0.40;0.20;;;;;;;17.16;76.05;99519.41;5015158;28;20972;-50
2021/05/09 07:42:42;;;;;;;0.40;0.20;;;;;;;17.35;74.49;99517.16;5016036;28;20527;-50
2021/05/09 07:45:14;;;;;;;0.40;0.20;;;;;;;17.52;74.83;99507.06;5016509;28;20452;-50
2021/05/09 07:47:41;;;;;;;0.40;0.20;;;;;;;17.48;75.95;99506.41;5016975;28;20449;-52
2021/05/09 07:50:08;;;;;;;0.83;0.83;;;;;;;17.81;74.92;99505.91;5015584;28;20938;-50
2021/05/09 07:52:35;;;;;;;0.40;0.20;;;;;;;18.47;75.19;99501.13;5015824;28;20559;-51
2021/05/09 07:55:02;;;;;;;1.33;1.33;;;;;;;18.57;74.22;99496.81;5015171;28;20448;-50
2021/05/09 07:57:28;;;;;;;0.40;0.20;;;;;;;18.39;76.46;99482.88;4984694;28;20493;-51
2021/05/09 07:59:54;;;;;;;0.40;0.30;;;;;;;18.44;76.43;99482.53;5015477;28;20457;-50
2021/05/09 08:02:21;;;;;;;0.40;0.20;;;;;;;18.65;75.18;99470.22;5025709;28;20467;-51
2021/05/09 08:04:48;;;;;;;0.40;0.20;;;;;;;18.96;75.70;99467.88;5015153;28;20534;-50
2021/05/09 08:07:14;;;;;;;0.40;0.20;;;;;;;19.34;75.15;99464.94;5014936;28;20449;-51
2021/05/09 08:09:40;;;;;;;0.50;0.30;;;;;;;19.80;73.84;99462.19;5015320;28;20945;-51
2021/05/09 08:12:07;;;;;;;0.40;0.30;;;;;;;19.75;74.12;99459.88;4997412;28;20519;-51
2021/05/09 08:14:33;;;;;;;0.40;0.30;;;;;;;19.67;74.24;99459.59;5015203;28;20869;-51
2021/05/09 08:16:59;;;;;;;0.53;0.50;;;;;;;19.71;75.25;99460.22;5014821;28;20506;-51
2021/05/09 08:19:25;;;;;;;0.50;0.47;;;;;;;19.74;74.33;99460.84;5015784;28;20461;-51
2021/05/09 08:21:52;;;;;;;0.40;0.20;;;;;;;19.96;74.50;99459.09;5015420;28;20477;-50
2021/05/09 08:24:18;;;;;;;0.40;0.20;;;;;;;19.90;73.78;99460.47;5014879;28;20468;-50
2021/05/09 08:26:44;;;;;;;0.40;0.20;;;;;;;20.63;72.62;99456.31;5015245;28;20456;-51
2021/05/09 08:29:10;;;;;;;0.70;0.70;;;;;;;20.38;73.05;99454.75;4997436;28;20465;-51
2021/05/09 08:31:36;;;;;;;0.40;0.20;;;;;;;20.63;72.84;99454.47;5014622;28;20563;-58
2021/05/09 08:34:03;;;;;;;0.60;0.60;;;;;;;20.79;72.50;99453.16;5014665;28;20486;-51
2021/05/09 08:36:29;;;;;;;0.50;0.40;;;;;;;21.30;71.19;99453.31;4996333;28;20457;-51
2021/05/09 08:38:55;;;;;;;0.40;0.20;;;;;;;21.12;71.64;99446.75;5014469;28;20989;-51
2021/05/09 08:41:23;;;;;;;0.40;0.23;;;;;;;20.96;70.44;99452.59;5028666;23;20519;-54
2021/05/09 08:43:49;;;;;;;0.40;0.20;;;;;;;21.63;70.74;99443.25;5014222;28;20512;-52
2021/05/09 08:46:19;;;;;;;0.40;0.20;;;;;;;21.12;71.75;99441.38;5014443;28;20452;-52
2021/05/09 08:48:48;;;;;;;0.50;0.30;;;;;;;21.77;69.76;99438.31;5014507;28;20440;-52
2021/05/09 08:51:16;;;;;;;0.60;0.60;;;;;;;21.42;71.14;99435.16;5014163;28;20449;-52
2021/05/09 08:53:46;;;;;;;0.50;0.20;;;;;;;21.57;68.00;99428.41;5014499;28;20514;-52
2021/05/09 08:56:12;;;;;;;0.97;0.97;;;;;;;22.10;65.98;99420.97;5010849;28;20484;-53
2021/05/09 08:58:39;;;;;;;0.40;0.20;;;;;;;21.73;63.94;99417.09;5005092;28;20488;-52
2021/05/09 09:01:05;;;;;;;0.50;0.20;;;;;;;21.99;63.39;99412.91;5015556;28;20462;-52
2021/05/09 09:03:33;;;;;;;0.50;0.30;;;;;;;22.20;64.45;99412.00;4995813;28;20488;-53
2021/05/09 09:06:02;;;;;;;0.50;0.20;;;;;;;22.43;64.60;99405.34;5012205;28;20451;-53
2021/05/09 09:08:28;;;;;;;0.50;0.30;;;;;;;22.37;64.37;99408.63;5014380;28;20448;-52
2021/05/09 09:10:54;;;;;;;0.50;0.20;;;;;;;22.60;65.19;99401.06;5014032;28;21065;-52
2021/05/09 09:13:22;;;;;;;0.50;0.20;;;;;;;22.73;63.07;99399.78;5014216;28;20473;-52
2021/05/09 09:15:59;;;;;;;0.50;0.30;;;;;;;22.78;62.20;99396.66;5014095;28;20452;-53
2021/05/09 09:18:30;;;;;;;0.50;0.30;;;;;;;22.68;63.25;99402.06;5013193;28;20496;-53
2021/05/09 09:20:57;;;;;;;0.50;0.20;;;;;;;22.53;64.34;99389.97;5013962;28;20499;-53
2021/05/09 09:23:41;;;;;;;0.50;0.20;;;;;;;22.45;63.69;99387.94;5013800;28;20508;-52
2021/05/09 09:26:32;;;;;;;3.90;2.10;;;;;;;22.54;64.75;99377.28;5013666;28;20552;-52
2021/05/09 09:29:18;;;;;;;0.47;0.20;;;;;;;22.70;63.98;99369.41;4994182;28;20453;-52
2021/05/09 09:31:45;;;;;;;0.43;0.20;;;;;;;22.74;64.41;99370.81;5010305;28;20519;-53
2021/05/09 09:34:12;;;;;;;0.43;0.20;;;;;;;23.05;63.83;99368.84;5013730;28;20463;-53
2021/05/09 09:36:39;;;;;;;0.50;0.30;;;;;;;23.45;62.99;99354.19;4996032;28;20456;-53
2021/05/09 09:39:08;;;;;;;0.50;0.30;;;;;;;23.39;61.17;99349.31;5013404;28;20497;-52
2021/05/09 09:41:42;;;;;;;0.50;0.30;;;;;;;23.07;61.31;99342.44;5013332;28;20491;-53
2021/05/09 09:44:11;;;;;;;0.60;0.50;;;;;;;23.32;62.08;99355.34;5013866;28;20453;-52
2021/05/09 09:46:40;;;;;;;0.50;0.30;;;;;;;23.74;60.26;99344.06;5013362;28;20472;-53
2021/05/09 09:49:37;;;;;;;0.50;0.20;;;;;;;23.69;60.15;99340.94;5000042;28;20449;-53
2021/05/09 09:52:08;;;;;;;0.50;0.20;;;;;;;23.74;59.85;99352.22;5013497;28;20912;-53
2021/05/09 09:54:46;;;;;;;0.60;0.60;;;;;;;23.81;60.38;99341.59;5013119;28;20955;-53
2021/05/09 09:57:24;;;;;;;0.50;0.20;;;;;;;23.76;60.12;99335.78;5001133;28;20493;-54
2021/05/09 10:00:13;;;;;;;0.50;0.40;;;;;;;24.14;60.17;99331.97;4993342;28;20974;-53
2021/05/09 10:02:43;;;;;;;0.50;0.30;;;;;;;24.23;59.59;99333.72;5018331;28;20477;-53
2021/05/09 10:05:10;;;;;;;0.50;0.30;;;;;;;24.39;59.18;99330.34;5004251;28;20448;-53
2021/05/09 10:07:37;;;;;;;0.50;0.20;;;;;;;24.29;59.20;99316.84;4995504;28;20945;-53
2021/05/09 10:10:04;;;;;;;0.50;0.20;;;;;;;24.32;57.72;99312.97;4995662;28;20520;-53
2021/05/09 10:12:31;;;;;;;0.50;0.30;;;;;;;24.48;58.32;99318.56;5012872;28;21044;-53
2021/05/09 10:14:57;;;;;;;0.50;0.23;;;;;;;24.61;58.05;99302.72;5013012;28;20812;-54
2021/05/09 10:17:24;;;;;;;0.50;0.30;;;;;;;24.63;56.86;99303.41;5012730;28;20463;-53
2021/05/09 10:19:52;;;;;;;0.50;0.30;;;;;;;24.98;55.83;99301.63;5001735;28;20802;-53
2021/05/09 10:22:32;;;;;;;3.10;0.77;;;;;;;24.97;56.10;99289.91;5011079;28;20530;-53
2021/05/09 10:24:59;;;;;;;0.50;0.30;;;;;;;24.99;56.51;99285.16;5012576;28;20471;-54
2021/05/09 10:27:35;;;;;;;0.50;0.30;;;;;;;25.24;55.83;99275.28;5012953;28;20459;-52
2021/05/09 10:30:04;;;;;;;0.43;0.20;;;;;;;25.10;56.04;99284.91;5011867;28;20452;-53
2021/05/09 10:32:36;;;;;;;0.50;0.30;;;;;;;25.25;55.69;99278.88;5012802;28;20455;-53
2021/05/09 10:35:07;;;;;;;0.50;0.30;;;;;;;25.43;55.12;99274.19;5012747;28;20867;-53
2021/05/09 10:37:42;;;;;;;0.50;0.30;;;;;;;25.47;55.30;99269.25;5012591;28;20458;-53
2021/05/09 10:40:31;;;;;;;0.50;0.30;;;;;;;25.71;54.56;99279.41;5012683;28;20459;-53
2021/05/09 10:43:08;;;;;;;0.50;0.20;;;;;;;25.49;54.49;99262.63;5012363;28;20852;-53
2021/05/09 10:45:38;;;;;;;0.50;0.30;;;;;;;25.56;53.70;99260.97;5012395;28;20429;-54
2021/05/09 10:48:33;;;;;;;0.50;0.20;;;;;;;25.80;52.93;99262.94;5009569;28;20449;-53
2021/05/09 10:51:02;;;;;;;0.50;0.30;;;;;;;25.64;52.20;99271.88;5006784;28;20448;-52
2021/05/09 10:53:37;;;;;;;0.50;0.20;;;;;;;25.81;53.02;99261.06;5012601;28;20423;-53
2021/05/09 10:56:15;;;;;;;0.50;0.30;;;;;;;25.50;52.91;99248.03;5009699;28;20935;-53
2021/05/09 10:58:46;;;;;;;0.50;0.30;;;;;;;25.89;53.49;99247.47;4993045;28;20468;-53
2021/05/09 11:01:14;;;;;;;0.50;0.30;;;;;;;26.19;52.54;99230.50;5013190;28;21008;-53
2021/05/09 11:03:40;;;;;;;0.50;0.30;;;;;;;26.42;52.14;99227.09;4991794;28;20449;-53
2021/05/09 11:06:15;;;;;;;0.50;0.30;;;;;;;26.24;52.04;99222.66;5010650;28;20604;-53
2021/05/09 11:08:41;;;;;;;0.50;0.23;;;;;;;26.51;52.03;99213.31;5012198;28;20945;-53
2021/05/09 11:11:26;;;;;;;0.50;0.30;;;;;;;26.76;52.46;99213.25;5012154;28;20431;-54
2021/05/09 11:13:59;;;;;;;0.50;0.30;;;;;;;26.84;47.91;99213.22;5012575;28;20504;-53
2021/05/09 11:16:52;;;;;;;0.50;0.37;;;;;;;26.91;49.85;99224.31;4994996;28;20843;-53
2021/05/09 11:19:18;;;;;;;0.50;0.30;;;;;;;27.00;49.54;99217.78;5002245;28;20483;-53
2021/05/09 11:21:53;;;;;;;0.93;0.60;;;;;;;27.00;49.12;99217.78;5007015;28;20469;-53
2021/05/09 11:24:22;;;;;;;0.60;0.50;;;;;;;26.85;50.04;99214.94;5012250;28;20448;-53
2021/05/09 11:26:50;;;;;;;0.60;0.60;;;;;;;26.85;49.92;99209.47;5012228;28;20423;-54
2021/05/09 11:29:19;;;;;;;0.50;0.30;;;;;;;26.67;49.89;99206.97;5012012;28;20451;-54
2021/05/09 11:31:51;;;;;;;0.50;0.30;;;;;;;26.79;49.45;99207.47;5012015;28;20480;-53
2021/05/09 11:34:19;;;;;;;0.50;0.30;;;;;;;26.86;50.28;99198.41;5012273;28;20465;-54
2021/05/09 11:36:48;;;;;;;0.50;0.30;;;;;;;26.84;49.19;99191.41;5011887;28;20477;-54
2021/05/09 11:39:18;;;;;;;0.50;0.30;;;;;;;27.14;47.78;99193.41;5011782;28;20492;-54